createdAt,value
2023-01-18T00:02:13.350Z,98.60
2023-01-18T00:04:42.171Z,98.50
2023-01-18T00:07:11.242Z,98.60
2023-01-18T00:09:40.151Z,98.70
2023-01-18T00:12:09.021Z,98.80
2023-01-18T00:14:37.747Z,99.00
2023-01-18T00:17:06.639Z,99.00
2023-01-18T00:19:37.429Z,99.00
2023-01-18T00:22:06.144Z,99.30
2023-01-18T00:24:35.025Z,99.20
2023-01-18T00:27:03.779Z,99.20
2023-01-18T00:29:34.550Z,99.20
2023-01-18T00:32:03.351Z,99.10
2023-01-18T00:34:32.349Z,99.20
2023-01-18T00:37:01.130Z,98.40
2023-01-18T00:39:29.803Z,98.30
2023-01-18T00:42:18.263Z,98.50
2023-01-18T00:44:47.091Z,98.50
2023-01-18T00:47:15.779Z,98.30
2023-01-18T00:49:45.733Z,98.30
2023-01-18T00:52:14.428Z,98.30
2023-01-18T00:54:43.186Z,99.30
2023-01-18T00:57:11.957Z,99.90
2023-01-18T00:59:40.828Z,99.70
2023-01-18T01:02:09.653Z,99.50
2023-01-18T01:04:58.093Z,98.90
2023-01-18T01:07:27.186Z,98.90
2023-01-18T01:09:58.412Z,99.00
2023-01-18T01:12:47.088Z,98.90
2023-01-18T01:15:35.578Z,99.70
2023-01-18T01:18:23.970Z,99.60
2023-01-18T01:21:12.327Z,99.50
2023-01-18T01:24:00.634Z,99.80
2023-01-18T01:26:29.370Z,99.70
2023-01-18T01:28:58.154Z,99.60
2023-01-18T01:31:26.899Z,99.30
2023-01-18T01:33:55.697Z,99.30
2023-01-18T01:36:27.124Z,99.30
2023-01-18T01:38:57.360Z,99.10
2023-01-18T01:41:33.695Z,98.70
2023-01-18T01:44:05.815Z,98.50
2023-01-18T01:46:58.112Z,98.50
2023-01-18T01:49:41.103Z,98.30
2023-01-18T01:52:13.356Z,98.30
2023-01-18T01:54:49.645Z,98.10
2023-01-18T01:57:22.834Z,97.90
2023-01-18T02:00:01.711Z,97.90
2023-01-18T02:02:33.512Z,97.70
2023-01-18T02:05:04.458Z,97.60
2023-01-18T02:07:34.658Z,97.80
2023-01-18T02:10:04.619Z,97.50
2023-01-18T02:12:35.364Z,97.20
2023-01-18T02:15:04.861Z,97.20
2023-01-18T02:17:47.561Z,96.30
2023-01-18T02:20:20.985Z,96.60
2023-01-18T02:23:01.911Z,97.00
2023-01-18T02:25:58.208Z,97.00
2023-01-18T02:28:38.688Z,96.70
2023-01-18T02:31:28.257Z,96.30
2023-01-18T02:34:20.609Z,96.50
2023-01-18T02:36:54.767Z,96.80
2023-01-18T02:39:39.432Z,96.60
2023-01-18T02:42:35.989Z,96.70
2023-01-18T02:45:30.759Z,96.90
2023-01-18T02:47:59.636Z,96.90
2023-01-18T02:50:29.683Z,96.40
2023-01-18T02:52:58.716Z,96.00
2023-01-18T02:55:47.836Z,95.90
2023-01-18T02:58:36.583Z,95.70
2023-01-18T03:01:06.525Z,96.20
2023-01-18T03:03:37.084Z,96.20
2023-01-18T03:06:09.550Z,96.10
2023-01-18T03:08:42.321Z,95.40
2023-01-18T03:11:20.091Z,95.60
2023-01-18T03:13:58.833Z,95.60
2023-01-18T03:16:40.845Z,95.50
2023-01-18T03:19:39.221Z,95.90
2023-01-18T03:22:17.811Z,95.80
2023-01-18T03:24:47.556Z,95.20
2023-01-18T03:27:36.039Z,95.10
2023-01-18T03:30:25.432Z,95.40
2023-01-18T03:33:13.912Z,95.50
2023-01-18T03:35:43.319Z,95.30
2023-01-18T03:38:12.342Z,95.30
2023-01-18T03:40:41.351Z,95.90
2023-01-18T03:43:16.080Z,94.70
2023-01-18T03:45:47.620Z,94.60
2023-01-18T03:48:17.278Z,94.60
2023-01-18T03:51:25.272Z,95.10
2023-01-18T03:54:18.866Z,95.00
2023-01-18T03:57:00.543Z,95.30
2023-01-18T03:59:35.428Z,95.10
2023-01-18T04:02:06.336Z,94.50
2023-01-18T04:04:35.683Z,94.30
2023-01-18T04:07:04.929Z,94.60
2023-01-18T04:09:34.065Z,94.20
2023-01-18T04:12:03.604Z,94.10
2023-01-18T04:14:32.723Z,93.90
2023-01-18T04:17:01.669Z,94.30
2023-01-18T04:19:30.736Z,94.40
2023-01-18T04:22:02.607Z,94.20
2023-01-18T04:24:31.628Z,94.40
2023-01-18T04:27:00.589Z,94.10
2023-01-18T04:29:29.673Z,93.70
2023-01-18T04:31:58.685Z,93.60
2023-01-18T04:34:27.653Z,93.40
2023-01-18T04:36:56.557Z,93.40
2023-01-18T04:39:25.376Z,93.30
2023-01-18T04:41:55.736Z,93.60
2023-01-18T04:44:25.786Z,93.40
2023-01-18T04:46:54.718Z,93.50
2023-01-18T04:49:23.598Z,93.80
2023-01-18T04:51:52.332Z,93.10
2023-01-18T04:54:36.635Z,93.10
2023-01-18T04:57:05.412Z,92.90
2023-01-18T04:59:34.400Z,93.10
2023-01-18T05:02:03.229Z,93.10
2023-01-18T05:04:32.078Z,93.10
2023-01-18T05:07:03.350Z,93.20
2023-01-18T05:09:32.256Z,93.70
2023-01-18T05:12:01.067Z,92.70
2023-01-18T05:14:29.904Z,93.30
2023-01-18T05:16:58.686Z,92.30
2023-01-18T05:19:31.426Z,91.70
2023-01-18T05:22:00.127Z,91.90
2023-01-18T05:24:30.022Z,92.30
2023-01-18T05:26:59.337Z,92.40
2023-01-18T05:29:28.127Z,92.90
2023-01-18T05:31:56.881Z,92.70
2023-01-18T05:34:30.907Z,92.50
2023-01-18T05:36:59.887Z,91.50
2023-01-18T05:39:28.773Z,92.00
2023-01-18T05:42:00.018Z,91.60
2023-01-18T05:44:33.652Z,91.50
2023-01-18T05:47:03.150Z,92.90
2023-01-18T05:49:32.101Z,92.00
2023-01-18T05:52:00.963Z,92.50
2023-01-18T05:54:29.828Z,91.80
2023-01-18T05:56:59.444Z,91.40
2023-01-18T05:59:28.439Z,91.50
2023-01-18T06:01:57.693Z,91.40
2023-01-18T06:04:26.677Z,91.90
2023-01-18T06:06:56.300Z,92.30
2023-01-18T06:09:25.250Z,91.50
2023-01-18T06:11:54.067Z,92.10
2023-01-18T06:14:22.953Z,91.40
2023-01-18T06:16:51.812Z,92.10
2023-01-18T06:19:20.799Z,92.60
2023-01-18T06:21:49.568Z,91.70
2023-01-18T06:24:18.598Z,91.30
2023-01-18T06:26:47.587Z,91.10
2023-01-18T06:29:16.384Z,92.20
2023-01-18T06:31:45.218Z,91.20
2023-01-18T06:34:14.029Z,91.60
2023-01-18T06:36:42.882Z,91.20
2023-01-18T06:39:11.799Z,91.70
2023-01-18T06:41:40.646Z,91.10
2023-01-18T06:44:09.485Z,90.90
2023-01-18T06:46:38.414Z,90.80
2023-01-18T06:49:07.156Z,91.70
2023-01-18T06:51:36.024Z,91.40
2023-01-18T06:54:04.979Z,91.90
2023-01-18T06:56:33.886Z,90.90
2023-01-18T06:59:02.750Z,90.60
2023-01-18T07:01:31.653Z,90.40
2023-01-18T07:04:00.975Z,91.30
2023-01-18T07:06:29.891Z,90.70
2023-01-18T07:08:58.657Z,90.70
2023-01-18T07:11:27.456Z,90.70
2023-01-18T07:13:56.284Z,90.70
2023-01-18T07:16:25.173Z,90.80
2023-01-18T07:18:54.039Z,91.60
2023-01-18T07:21:30.460Z,91.00
2023-01-18T07:24:00.305Z,90.70
2023-01-18T07:26:29.231Z,91.20
2023-01-18T07:28:57.927Z,91.10
2023-01-18T07:31:27.374Z,90.60
2023-01-18T07:33:56.457Z,90.50
2023-01-18T07:36:25.239Z,90.20
2023-01-18T07:38:54.126Z,90.20
2023-01-18T07:41:24.362Z,90.00
2023-01-18T07:43:54.985Z,89.80
2023-01-18T07:46:24.733Z,89.40
2023-01-18T07:48:54.320Z,89.60
2023-01-18T07:51:23.806Z,89.10
2023-01-18T07:53:56.764Z,89.20
2023-01-18T07:56:26.779Z,88.90
2023-01-18T07:58:56.755Z,89.00
2023-01-18T08:01:25.981Z,88.90
2023-01-18T08:03:55.746Z,89.00
2023-01-18T08:06:26.470Z,89.60
2023-01-18T08:08:58.013Z,89.80
2023-01-18T08:11:27.058Z,89.20
2023-01-18T08:13:55.976Z,88.40
2023-01-18T08:16:25.579Z,88.70
2023-01-18T08:18:54.496Z,88.50
2023-01-18T08:21:23.370Z,88.40
2023-01-18T08:23:55.223Z,87.90
2023-01-18T08:26:24.118Z,89.90
2023-01-18T08:28:52.892Z,87.20
2023-01-18T08:31:23.012Z,86.70
2023-01-18T08:33:53.691Z,87.90
2023-01-18T08:36:28.289Z,89.10
2023-01-18T08:38:59.120Z,87.50
2023-01-18T08:41:30.206Z,87.80
2023-01-18T08:44:00.501Z,85.90
2023-01-18T08:46:29.467Z,85.10
2023-01-18T08:49:00.618Z,85.30
2023-01-18T08:51:29.567Z,84.90
2023-01-18T08:53:59.774Z,85.70
2023-01-18T08:56:28.948Z,86.00
2023-01-18T08:58:58.660Z,85.20
2023-01-18T09:01:27.971Z,85.20
2023-01-18T09:03:59.491Z,86.10
2023-01-18T09:06:33.006Z,84.30
2023-01-18T09:09:02.684Z,84.10
2023-01-18T09:11:32.676Z,84.70
2023-01-18T09:14:02.562Z,85.40
2023-01-18T09:16:32.702Z,85.90
2023-01-18T09:19:02.201Z,85.90
2023-01-18T09:21:31.081Z,86.20
2023-01-18T09:24:00.824Z,84.30
2023-01-18T09:26:31.297Z,85.10
2023-01-18T09:29:00.405Z,84.70
2023-01-18T09:31:30.036Z,85.90
2023-01-18T09:34:19.313Z,85.60
2023-01-18T09:36:51.233Z,85.40
2023-01-18T09:39:22.073Z,85.00
2023-01-18T09:41:56.135Z,85.70
2023-01-18T09:44:32.728Z,86.00
2023-01-18T09:47:23.352Z,85.10
2023-01-18T09:49:59.933Z,85.90
2023-01-18T09:52:33.046Z,85.70
2023-01-18T09:55:09.059Z,85.90
2023-01-18T09:57:51.421Z,86.20
2023-01-18T10:00:27.111Z,85.30
2023-01-18T10:03:01.823Z,85.20
2023-01-18T10:05:36.046Z,85.30
2023-01-18T10:08:16.454Z,85.40
2023-01-18T10:11:06.309Z,85.70
2023-01-18T10:13:43.095Z,85.20
2023-01-18T10:16:15.957Z,85.20
2023-01-18T10:18:49.178Z,85.40
2023-01-18T10:21:28.107Z,86.50
2023-01-18T10:24:17.795Z,86.10
2023-01-18T10:26:49.389Z,85.70
2023-01-18T10:29:23.545Z,86.20
2023-01-18T10:32:02.834Z,86.70
2023-01-18T10:34:34.787Z,87.70
2023-01-18T10:37:20.756Z,86.60
2023-01-18T10:39:54.548Z,88.00
2023-01-18T10:42:30.250Z,87.50
2023-01-18T10:44:58.980Z,87.50
2023-01-18T10:47:27.660Z,87.90
2023-01-18T10:50:00.831Z,87.70
2023-01-18T10:52:32.901Z,88.10
2023-01-18T10:55:03.466Z,89.10
2023-01-18T10:57:51.084Z,89.90
2023-01-18T11:00:35.943Z,90.30
2023-01-18T11:03:07.619Z,90.70
2023-01-18T11:05:45.658Z,91.10
2023-01-18T11:08:32.804Z,91.50
2023-01-18T11:11:21.553Z,91.70
2023-01-18T11:13:51.895Z,91.80
2023-01-18T11:16:22.621Z,91.80
2023-01-18T11:19:00.411Z,91.90
2023-01-18T11:21:49.977Z,92.00
2023-01-18T11:24:28.455Z,92.10
2023-01-18T11:27:00.131Z,92.20
2023-01-18T11:29:33.993Z,92.30
2023-01-18T11:32:07.169Z,92.50
2023-01-18T11:34:39.700Z,92.50
2023-01-18T11:37:32.028Z,92.50
2023-01-18T11:40:01.531Z,92.60
2023-01-18T11:42:33.395Z,93.00
2023-01-18T11:45:41.474Z,92.80
2023-01-18T11:48:40.362Z,93.00
2023-01-18T11:51:35.360Z,93.10
2023-01-18T11:54:13.508Z,93.20
2023-01-18T11:56:50.600Z,93.70
2023-01-18T11:59:31.359Z,93.50
2023-01-18T12:02:24.185Z,93.40
2023-01-18T12:05:11.245Z,93.50
2023-01-18T12:07:47.851Z,93.40
2023-01-18T12:10:24.561Z,93.40
2023-01-18T12:13:13.322Z,93.50
2023-01-18T12:16:18.311Z,93.70
2023-01-18T12:19:26.266Z,93.90
2023-01-18T12:22:21.820Z,94.20
2023-01-18T12:24:55.082Z,94.20
2023-01-18T12:27:44.898Z,94.10
2023-01-18T12:30:47.298Z,94.10
2023-01-18T12:33:28.558Z,94.10
2023-01-18T12:36:14.556Z,94.20
2023-01-18T12:38:53.469Z,94.20
2023-01-18T12:41:34.549Z,94.40
2023-01-18T12:44:12.667Z,94.30
2023-01-18T12:47:08.679Z,94.40
2023-01-18T12:49:44.188Z,94.60
2023-01-18T12:52:19.371Z,94.70
2023-01-18T12:54:57.006Z,94.70
2023-01-18T12:57:27.649Z,94.60
2023-01-18T13:00:04.044Z,94.80
2023-01-18T13:02:39.160Z,95.00
2023-01-18T13:05:15.707Z,95.00
2023-01-18T13:07:51.001Z,95.00
2023-01-18T13:10:24.774Z,95.00
2023-01-18T13:12:55.548Z,95.10
2023-01-18T13:15:28.643Z,95.10
2023-01-18T13:18:09.054Z,95.20
2023-01-18T13:20:50.801Z,95.20
2023-01-18T13:23:28.381Z,95.20
2023-01-18T13:26:07.449Z,95.30
2023-01-18T13:28:37.938Z,95.10
2023-01-18T13:31:07.380Z,95.20
2023-01-18T13:33:42.032Z,95.20
2023-01-18T13:36:19.776Z,95.10
2023-01-18T13:38:54.775Z,95.30
2023-01-18T13:41:26.045Z,95.20
2023-01-18T13:44:04.453Z,95.10
2023-01-18T13:46:37.515Z,94.80
2023-01-18T13:49:37.653Z,94.70
2023-01-18T13:52:31.469Z,94.70
2023-01-18T13:55:03.552Z,94.70
2023-01-18T13:57:34.667Z,94.60
2023-01-18T14:00:03.962Z,94.70
2023-01-18T14:02:43.067Z,94.50
2023-01-18T14:05:25.466Z,94.40
2023-01-18T14:07:58.256Z,94.50
2023-01-18T14:10:37.834Z,94.30
2023-01-18T14:13:09.535Z,94.20
2023-01-18T14:15:55.220Z,94.50
2023-01-18T14:18:28.351Z,94.20
2023-01-18T14:21:06.882Z,94.10
2023-01-18T14:23:53.307Z,94.10
2023-01-18T14:26:23.619Z,94.00
2023-01-18T14:28:58.614Z,93.90
2023-01-18T14:31:34.401Z,93.90
2023-01-18T14:34:26.878Z,93.90
2023-01-18T14:36:56.125Z,93.80
2023-01-18T14:39:25.260Z,93.80
2023-01-18T14:41:58.497Z,93.80
2023-01-18T14:44:48.695Z,93.70
2023-01-18T14:47:27.583Z,93.70
2023-01-18T14:49:56.952Z,93.70
2023-01-18T14:52:31.927Z,93.60
2023-01-18T14:55:00.789Z,93.60
2023-01-18T14:57:29.609Z,93.60
2023-01-18T15:00:17.611Z,93.60
2023-01-18T15:02:47.312Z,93.60
2023-01-18T15:05:18.901Z,93.60
2023-01-18T15:07:56.357Z,93.60
2023-01-18T15:10:27.281Z,93.60
2023-01-18T15:12:59.657Z,93.60
2023-01-18T15:15:35.303Z,93.60
2023-01-18T15:18:13.343Z,93.60
2023-01-18T15:20:55.807Z,93.60
2023-01-18T15:23:25.973Z,93.60
2023-01-18T15:25:56.826Z,93.60
2023-01-18T15:28:32.771Z,93.60
2023-01-18T15:31:06.584Z,93.60
2023-01-18T15:33:37.718Z,93.70
2023-01-18T15:36:07.752Z,93.80
2023-01-18T15:38:36.887Z,93.80
2023-01-18T15:41:11.162Z,93.80
2023-01-18T15:43:44.964Z,93.90
2023-01-18T15:46:17.303Z,94.00
2023-01-18T15:48:51.563Z,94.00
2023-01-18T15:51:23.632Z,94.00
2023-01-18T15:53:57.151Z,94.00
2023-01-18T15:56:31.832Z,94.10
2023-01-18T15:59:03.128Z,94.10
2023-01-18T16:01:37.090Z,94.10
2023-01-18T16:04:23.577Z,94.10
2023-01-18T16:06:52.592Z,94.10
2023-01-18T16:09:24.195Z,94.00
2023-01-18T16:11:57.451Z,94.10
2023-01-18T16:14:35.077Z,94.10
2023-01-18T16:17:13.880Z,94.10
2023-01-18T16:19:45.624Z,94.10
2023-01-18T16:22:25.212Z,94.20
2023-01-18T16:24:56.926Z,94.20
2023-01-18T16:27:28.423Z,94.10
2023-01-18T16:30:00.848Z,94.00
2023-01-18T16:32:35.736Z,94.10
2023-01-18T16:35:13.383Z,94.20
2023-01-18T16:37:45.378Z,94.20
2023-01-18T16:40:15.978Z,94.10
2023-01-18T16:43:09.121Z,94.20
2023-01-18T16:45:39.915Z,94.30
2023-01-18T16:48:14.943Z,94.50
2023-01-18T16:50:43.874Z,94.50
2023-01-18T16:53:13.429Z,94.70
2023-01-18T16:55:45.170Z,94.80
2023-01-18T16:58:16.350Z,94.90
2023-01-18T17:01:18.020Z,94.90
2023-01-18T17:03:46.955Z,95.00
2023-01-18T17:06:21.416Z,95.10
2023-01-18T17:08:51.580Z,95.30
2023-01-18T17:11:20.443Z,95.30
2023-01-18T17:13:49.440Z,95.40
2023-01-18T17:16:20.910Z,95.40
2023-01-18T17:18:50.974Z,95.50
2023-01-18T17:21:19.778Z,95.60
2023-01-18T17:23:48.605Z,95.70
2023-01-18T17:26:18.004Z,95.80
2023-01-18T17:28:46.946Z,95.80
2023-01-18T17:31:15.695Z,95.90
2023-01-18T17:33:44.787Z,95.90
2023-01-18T17:36:13.698Z,96.00
2023-01-18T17:38:42.508Z,96.10
2023-01-18T17:41:26.535Z,96.10
2023-01-18T17:43:56.012Z,96.10
2023-01-18T17:46:24.876Z,96.10
2023-01-18T17:48:53.660Z,96.10
2023-01-18T17:51:22.509Z,96.10
2023-01-18T17:53:51.305Z,96.00
2023-01-18T17:56:20.333Z,96.00
2023-01-18T17:58:50.461Z,96.00
2023-01-18T18:01:19.350Z,96.00
2023-01-18T18:03:50.904Z,95.90
2023-01-18T18:06:31.629Z,95.80
2023-01-18T18:09:01.986Z,95.80
2023-01-18T18:11:31.194Z,95.80
2023-01-18T18:14:01.639Z,95.80
2023-01-18T18:16:32.704Z,95.90
2023-01-18T18:19:01.480Z,95.90
2023-01-18T18:21:30.186Z,96.00
2023-01-18T18:23:59.686Z,96.00
2023-01-18T18:26:28.623Z,96.00
2023-01-18T18:28:57.553Z,96.10
2023-01-18T18:31:26.417Z,96.20
2023-01-18T18:33:55.249Z,96.20
2023-01-18T18:36:28.083Z,96.30
2023-01-18T18:38:56.825Z,96.40
2023-01-18T18:41:25.624Z,96.40
2023-01-18T18:43:54.643Z,96.50
2023-01-18T18:46:23.609Z,96.60
2023-01-18T18:48:55.926Z,96.60
2023-01-18T18:51:25.028Z,96.70
2023-01-18T18:53:54.276Z,96.80
2023-01-18T18:56:23.138Z,96.80
2023-01-18T18:58:51.819Z,96.70
2023-01-18T19:01:23.542Z,96.70
2023-01-18T19:03:54.353Z,96.70
2023-01-18T19:06:24.765Z,96.80
2023-01-18T19:08:53.766Z,96.80
2023-01-18T19:11:22.724Z,96.90
2023-01-18T19:13:51.647Z,97.00
2023-01-18T19:16:21.057Z,97.10
2023-01-18T19:18:49.933Z,97.10
2023-01-18T19:21:19.603Z,97.40
2023-01-18T19:23:48.435Z,97.30
2023-01-18T19:26:17.434Z,97.30
2023-01-18T19:28:55.215Z,97.30
2023-01-18T19:31:23.948Z,97.30
2023-01-18T19:36:39.070Z,97.10
2023-01-18T19:39:14.736Z,97.00
2023-01-18T19:41:50.801Z,97.00
2023-01-18T19:44:19.511Z,97.00
2023-01-18T19:46:48.342Z,97.00
2023-01-18T19:49:17.130Z,97.00
2023-01-18T19:51:46.029Z,97.00
2023-01-18T19:54:14.744Z,96.90
2023-01-18T19:56:43.368Z,97.00
2023-01-18T19:59:12.513Z,97.00
2023-01-18T20:01:41.301Z,97.00
2023-01-18T20:04:11.017Z,97.00
2023-01-18T20:06:40.762Z,97.10
2023-01-18T20:09:19.012Z,97.10
2023-01-18T20:11:49.264Z,97.00
2023-01-18T20:14:19.469Z,97.00
2023-01-18T20:16:48.275Z,97.10
2023-01-18T20:19:18.830Z,97.10
2023-01-18T20:21:47.617Z,97.00
2023-01-18T20:24:17.270Z,97.00
2023-01-18T20:26:46.223Z,97.00
2023-01-18T20:29:14.944Z,97.00
2023-01-18T20:31:49.703Z,96.90
2023-01-18T20:34:18.871Z,97.10
2023-01-18T20:36:50.972Z,96.90
2023-01-18T20:39:20.889Z,96.80
2023-01-18T20:41:51.062Z,96.80
2023-01-18T20:44:19.798Z,96.90
2023-01-18T20:46:48.918Z,96.70
2023-01-18T20:49:22.451Z,96.80
2023-01-18T20:51:53.454Z,96.70
2023-01-18T20:54:22.306Z,96.70
2023-01-18T20:56:51.002Z,96.60
2023-01-18T20:59:21.186Z,96.70
2023-01-18T21:01:50.144Z,96.60
2023-01-18T21:04:18.895Z,96.60
2023-01-18T21:06:48.229Z,96.70
2023-01-18T21:09:17.102Z,96.70
2023-01-18T21:11:45.954Z,96.70
2023-01-18T21:14:14.769Z,96.80
2023-01-18T21:16:44.228Z,96.70
2023-01-18T21:19:13.159Z,97.10
2023-01-18T21:21:41.883Z,96.90
2023-01-18T21:24:10.780Z,96.90
2023-01-18T21:26:39.676Z,96.90
2023-01-18T21:29:08.380Z,97.20
2023-01-18T21:31:37.948Z,97.20
2023-01-18T21:34:08.235Z,97.10
2023-01-18T21:36:37.033Z,97.20
2023-01-18T21:39:06.492Z,97.60
2023-01-18T21:41:54.911Z,97.30
2023-01-18T21:44:43.298Z,97.20
2023-01-18T21:47:11.976Z,97.20
2023-01-18T21:50:21.483Z,97.10
2023-01-18T21:53:09.849Z,97.30
2023-01-18T21:55:41.224Z,97.20
2023-01-18T21:58:29.481Z,97.80
2023-01-18T22:01:01.697Z,98.00
2023-01-18T22:03:30.400Z,98.10
2023-01-18T22:06:02.415Z,97.90
2023-01-18T22:08:31.181Z,97.70
2023-01-18T22:11:00.403Z,97.80
2023-01-18T22:13:29.301Z,98.20
2023-01-18T22:15:58.054Z,98.50
2023-01-18T22:18:26.927Z,98.50
2023-01-18T22:20:57.434Z,98.50
2023-01-18T22:23:26.323Z,98.20
2023-01-18T22:25:57.182Z,98.20
2023-01-18T22:28:25.961Z,98.00
2023-01-18T22:30:54.915Z,97.80
2023-01-18T22:33:24.287Z,98.10
2023-01-18T22:35:59.471Z,98.20
2023-01-18T22:38:28.728Z,98.10
2023-01-18T22:41:08.398Z,97.90
2023-01-18T22:43:37.572Z,97.80
2023-01-18T22:46:07.394Z,97.70
2023-01-18T22:48:38.740Z,97.80
2023-01-18T22:51:08.894Z,97.70
2023-01-18T22:53:38.257Z,97.60
2023-01-18T22:56:09.620Z,97.80
2023-01-18T22:58:38.597Z,97.80
2023-01-18T23:01:21.386Z,97.80
2023-01-18T23:03:51.617Z,97.80
2023-01-18T23:06:21.834Z,97.80
2023-01-18T23:08:51.361Z,98.10
2023-01-18T23:11:23.219Z,98.00
2023-01-18T23:14:14.639Z,98.00
2023-01-18T23:17:03.681Z,98.10
2023-01-18T23:19:32.439Z,97.90
2023-01-18T23:22:01.248Z,97.80
2023-01-18T23:24:30.059Z,97.80
2023-01-18T23:26:58.807Z,97.90
2023-01-18T23:29:27.565Z,98.00
2023-01-18T23:31:57.427Z,98.00
2023-01-18T23:34:27.147Z,98.40
2023-01-18T23:36:56.460Z,98.40
2023-01-18T23:39:44.790Z,98.20
2023-01-18T23:42:33.282Z,98.20
2023-01-18T23:45:21.561Z,98.20
2023-01-18T23:48:09.934Z,98.50
2023-01-18T23:50:58.274Z,98.40
2023-01-18T23:53:46.630Z,98.30
2023-01-18T23:56:15.310Z,99.20
2023-01-18T23:58:44.211Z,99.50
